sensor_id;sensor_type;location;lat;lon;timestamp;pressure;altitude;pressure_sealevel;temperature;humidity
46534;BME280;32260;52.008;4.752;2023-02-12T00:00:09;103943.88;;;10.54;63.24
46534;BME280;32260;52.008;4.752;2023-02-12T00:02:35;103935.91;;;10.54;63.55
46534;BME280;32260;52.008;4.752;2023-02-12T00:05:01;103938.53;;;10.52;63.47
46534;BME280;32260;52.008;4.752;2023-02-12T00:07:29;103933.25;;;10.54;63.39
46534;BME280;32260;52.008;4.752;2023-02-12T00:09:56;103938.50;;;10.51;63.49
46534;BME280;32260;52.008;4.752;2023-02-12T00:12:22;103934.88;;;10.49;63.54
46534;BME280;32260;52.008;4.752;2023-02-12T00:14:48;103938.34;;;10.46;63.48
46534;BME280;32260;52.008;4.752;2023-02-12T00:17:14;103929.50;;;10.46;63.56
46534;BME280;32260;52.008;4.752;2023-02-12T00:19:40;103933.00;;;10.45;63.73
46534;BME280;32260;52.008;4.752;2023-02-12T00:22:06;103931.19;;;10.44;63.60
46534;BME280;32260;52.008;4.752;2023-02-12T00:24:32;103931.19;;;10.44;63.88
46534;BME280;32260;52.008;4.752;2023-02-12T00:26:59;103925.91;;;10.44;63.77
46534;BME280;32260;52.008;4.752;2023-02-12T00:29:25;103925.00;;;10.43;63.79
46534;BME280;32260;52.008;4.752;2023-02-12T00:31:51;103927.69;;;10.45;63.77
46534;BME280;32260;52.008;4.752;2023-02-12T00:34:17;103928.56;;;10.44;63.68
46534;BME280;32260;52.008;4.752;2023-02-12T00:36:43;103932.13;;;10.44;63.80
46534;BME280;32260;52.008;4.752;2023-02-12T00:39:10;103927.69;;;10.45;63.72
46534;BME280;32260;52.008;4.752;2023-02-12T00:41:36;103925.91;;;10.44;63.51
46534;BME280;32260;52.008;4.752;2023-02-12T00:44:02;103925.91;;;10.44;63.67
46534;BME280;32260;52.008;4.752;2023-02-12T00:46:29;103940.91;;;10.43;63.76
46534;BME280;32260;52.008;4.752;2023-02-12T00:48:55;103932.00;;;10.41;63.81
46534;BME280;32260;52.008;4.752;2023-02-12T00:51:21;103931.13;;;10.41;63.69
46534;BME280;32260;52.008;4.752;2023-02-12T00:53:48;103931.00;;;10.38;63.69
46534;BME280;32260;52.008;4.752;2023-02-12T00:56:14;103922.09;;;10.35;63.94
46534;BME280;32260;52.008;4.752;2023-02-12T00:58:40;103924.66;;;10.32;63.92
46534;BME280;32260;52.008;4.752;2023-02-12T01:01:07;103917.53;;;10.31;64.01
46534;BME280;32260;52.008;4.752;2023-02-12T01:03:33;103921.03;;;10.30;63.92
46534;BME280;32260;52.008;4.752;2023-02-12T01:05:59;103921.91;;;10.29;63.84
46534;BME280;32260;52.008;4.752;2023-02-12T01:08:25;103923.69;;;10.30;64.01
46534;BME280;32260;52.008;4.752;2023-02-12T01:10:57;103924.66;;;10.32;64.08
46534;BME280;32260;52.008;4.752;2023-02-12T01:13:24;103923.66;;;10.29;64.40
46534;BME280;32260;52.008;4.752;2023-02-12T01:16:01;103917.53;;;10.31;64.17
46534;BME280;32260;52.008;4.752;2023-02-12T01:18:27;103918.19;;;10.24;64.32
46534;BME280;32260;52.008;4.752;2023-02-12T01:20:53;103915.53;;;10.24;64.33
46534;BME280;32260;52.008;4.752;2023-02-12T01:23:20;103915.47;;;10.21;64.18
46534;BME280;32260;52.008;4.752;2023-02-12T01:25:46;103923.38;;;10.19;64.24
46534;BME280;32260;52.008;4.752;2023-02-12T01:28:12;103927.72;;;10.17;64.39
46534;BME280;32260;52.008;4.752;2023-02-12T01:30:38;103928.53;;;10.15;64.43
46534;BME280;32260;52.008;4.752;2023-02-12T01:33:04;103921.41;;;10.14;64.69
46534;BME280;32260;52.008;4.752;2023-02-12T01:35:30;103931.06;;;10.12;64.53
46534;BME280;32260;52.008;4.752;2023-02-12T01:37:56;103936.31;;;10.10;64.29
46534;BME280;32260;52.008;4.752;2023-02-12T01:40:23;103921.28;;;10.09;64.49
46534;BME280;32260;52.008;4.752;2023-02-12T01:42:49;103930.94;;;10.07;64.54
46534;BME280;32260;52.008;4.752;2023-02-12T01:47:54;103936.13;;;10.04;64.50
46534;BME280;32260;52.008;4.752;2023-02-12T01:50:20;103936.09;;;10.02;64.52
46534;BME280;32260;52.008;4.752;2023-02-12T01:52:52;103928.19;;;10.04;64.59
46534;BME280;32260;52.008;4.752;2023-02-12T01:55:19;103936.94;;;10.01;64.53
46534;BME280;32260;52.008;4.752;2023-02-12T01:57:47;103936.94;;;10.01;64.78
46534;BME280;32260;52.008;4.752;2023-02-12T02:00:17;103936.94;;;10.01;64.56
46534;BME280;32260;52.008;4.752;2023-02-12T02:02:46;103937.78;;;10.00;64.71
46534;BME280;32260;52.008;4.752;2023-02-12T02:05:17;103933.41;;;10.01;64.87
46534;BME280;32260;52.008;4.752;2023-02-12T02:07:44;103929.81;;;10.00;64.78
46534;BME280;32260;52.008;4.752;2023-02-12T02:10:10;103933.34;;;9.99;64.98
46534;BME280;32260;52.008;4.752;2023-02-12T02:12:37;103938.66;;;9.99;64.82
46534;BME280;32260;52.008;4.752;2023-02-12T02:15:25;103934.19;;;9.98;64.89
46534;BME280;32260;52.008;4.752;2023-02-12T02:19:19;103937.03;;;10.04;64.74
46534;BME280;32260;52.008;4.752;2023-02-12T02:21:13;103937.84;;;10.02;64.87
46534;BME280;32260;52.008;4.752;2023-02-12T02:32:29;103931.63;;;10.01;64.87
46534;BME280;32260;52.008;4.752;2023-02-12T02:35:03;103932.47;;;10.00;64.63
46534;BME280;32260;52.008;4.752;2023-02-12T02:37:50;103937.13;;;10.08;64.33
46534;BME280;32260;52.008;4.752;2023-02-12T02:40:26;103917.66;;;10.06;64.68
46534;BME280;32260;52.008;4.752;2023-02-12T02:43:12;103912.44;;;10.09;64.44
46534;BME280;32260;52.008;4.752;2023-02-12T02:45:47;103917.72;;;10.09;64.32
46534;BME280;32260;52.008;4.752;2023-02-12T02:48:23;103930.13;;;10.10;64.29
46534;BME280;32260;52.008;4.752;2023-02-12T02:50:56;103926.53;;;10.08;64.26
46534;BME280;32260;52.008;4.752;2023-02-12T02:53:34;103919.53;;;10.10;64.11
46534;BME280;32260;52.008;4.752;2023-02-12T02:56:05;103908.81;;;10.07;64.15
46534;BME280;32260;52.008;4.752;2023-02-12T02:58:38;103913.31;;;10.09;64.25
46534;BME280;32260;52.008;4.752;2023-02-12T03:01:19;103917.69;;;10.07;64.46
46534;BME280;32260;52.008;4.752;2023-02-12T03:04:04;103907.13;;;10.09;64.18
46534;BME280;32260;52.008;4.752;2023-02-12T03:06:53;103908.03;;;10.09;64.18
46534;BME280;32260;52.008;4.752;2023-02-12T03:12:08;103919.16;;;9.97;64.26
46534;BME280;32260;52.008;4.752;2023-02-12T03:14:41;103922.63;;;9.96;64.24
46534;BME280;32260;52.008;4.752;2023-02-12T03:17:09;103908.81;;;10.07;64.09
46534;BME280;32260;52.008;4.752;2023-02-12T03:19:44;103916.53;;;9.99;64.13
46534;BME280;32260;52.008;4.752;2023-02-12T03:22:17;103914.81;;;9.99;64.11
46534;BME280;32260;52.008;4.752;2023-02-12T03:24:50;103908.63;;;10.00;64.07
46534;BME280;32260;52.008;4.752;2023-02-12T03:27:25;103896.25;;;9.99;64.19
46534;BME280;32260;52.008;4.752;2023-02-12T03:29:54;103913.84;;;9.97;64.01
46534;BME280;32260;52.008;4.752;2023-02-12T03:32:30;103906.88;;;9.99;63.93
46534;BME280;32260;52.008;4.752;2023-02-12T03:37:59;103904.13;;;9.98;64.01
46534;BME280;32260;52.008;4.752;2023-02-12T03:40:34;103906.59;;;9.92;63.83
46534;BME280;32260;52.008;4.752;2023-02-12T03:43:22;103908.34;;;9.91;63.93
46534;BME280;32260;52.008;4.752;2023-02-12T03:46:03;103915.34;;;9.89;63.87
46534;BME280;32260;52.008;4.752;2023-02-12T03:48:40;103921.44;;;9.86;63.93
46534;BME280;32260;52.008;4.752;2023-02-12T03:53:48;103919.59;;;9.84;64.29
46534;BME280;32260;52.008;4.752;2023-02-12T03:57:19;103911.75;;;9.87;63.87
46534;BME280;32260;52.008;4.752;2023-02-12T03:59:05;103916.09;;;9.85;63.92
46534;BME280;32260;52.008;4.752;2023-02-12T04:01:39;103913.44;;;9.85;64.04
46534;BME280;32260;52.008;4.752;2023-02-12T04:04:07;103919.72;;;9.87;64.14
46534;BME280;32260;52.008;4.752;2023-02-12T04:06:33;103919.63;;;9.85;64.21
46534;BME280;32260;52.008;4.752;2023-02-12T04:09:04;103917.94;;;9.87;64.22
46534;BME280;32260;52.008;4.752;2023-02-12T04:12:06;103926.94;;;9.93;64.08
46534;BME280;32260;52.008;4.752;2023-02-12T04:15:56;103923.44;;;9.94;63.94
46534;BME280;32260;52.008;4.752;2023-02-12T04:17:56;103926.78;;;9.88;64.30
46534;BME280;32260;52.008;4.752;2023-02-12T04:21:48;103927.75;;;9.90;64.19
46534;BME280;32260;52.008;4.752;2023-02-12T04:24:49;103927.59;;;9.85;64.01
46534;BME280;32260;52.008;4.752;2023-02-12T04:29:17;103941.78;;;9.87;63.94
46534;BME280;32260;52.008;4.752;2023-02-12T04:32:03;103946.06;;;9.84;63.87
46534;BME280;32260;52.008;4.752;2023-02-12T04:37:14;103959.22;;;9.81;64.23
46534;BME280;32260;52.008;4.752;2023-02-12T04:39:42;103962.72;;;9.80;63.89
46534;BME280;32260;52.008;4.752;2023-02-12T04:42:09;103958.28;;;9.79;63.93
46534;BME280;32260;52.008;4.752;2023-02-12T04:44:38;103965.38;;;9.80;64.22
46534;BME280;32260;52.008;4.752;2023-02-12T04:47:05;103956.47;;;9.78;64.21
46534;BME280;32260;52.008;4.752;2023-02-12T04:49:31;103958.28;;;9.79;64.07
46534;BME280;32260;52.008;4.752;2023-02-12T04:51:57;103960.91;;;9.79;63.96
46534;BME280;32260;52.008;4.752;2023-02-12T04:54:23;103960.97;;;9.80;64.34
46534;BME280;32260;52.008;4.752;2023-02-12T04:56:50;103962.78;;;9.81;64.01
46534;BME280;32260;52.008;4.752;2023-02-12T04:59:16;103960.97;;;9.80;64.08
46534;BME280;32260;52.008;4.752;2023-02-12T05:01:43;103961.00;;;9.82;64.01
46534;BME280;32260;52.008;4.752;2023-02-12T05:04:12;103958.31;;;9.80;64.02
46534;BME280;32260;52.008;4.752;2023-02-12T05:06:39;103962.72;;;9.80;63.97
46534;BME280;32260;52.008;4.752;2023-02-12T05:09:07;103955.63;;;9.79;64.15
46534;BME280;32260;52.008;4.752;2023-02-12T05:11:33;103960.91;;;9.79;64.25
46534;BME280;32260;52.008;4.752;2023-02-12T05:13:59;103961.81;;;9.79;63.99
46534;BME280;32260;52.008;4.752;2023-02-12T05:16:25;103957.44;;;9.80;63.94
46534;BME280;32260;52.008;4.752;2023-02-12T05:18:52;103958.22;;;9.77;64.11
46534;BME280;32260;52.008;4.752;2023-02-12T05:21:18;103959.16;;;9.79;64.32
46534;BME280;32260;52.008;4.752;2023-02-12T05:23:44;103960.03;;;9.78;63.94
46534;BME280;32260;52.008;4.752;2023-02-12T05:26:13;103950.31;;;9.79;64.24
46534;BME280;32260;52.008;4.752;2023-02-12T05:28:40;103943.22;;;9.78;64.17
46534;BME280;32260;52.008;4.752;2023-02-12T05:31:08;103939.69;;;9.77;64.20
46534;BME280;32260;52.008;4.752;2023-02-12T05:33:34;103955.50;;;9.76;64.26
46534;BME280;32260;52.008;4.752;2023-02-12T05:36:05;103959.13;;;9.78;64.31
46534;BME280;32260;52.008;4.752;2023-02-12T05:38:32;103959.03;;;9.75;64.42
46534;BME280;32260;52.008;4.752;2023-02-12T05:41:10;103947.69;;;9.79;64.15
46534;BME280;32260;52.008;4.752;2023-02-12T05:43:36;103956.38;;;9.75;64.28
46534;BME280;32260;52.008;4.752;2023-02-12T05:46:04;103965.22;;;9.75;64.43
46534;BME280;32260;52.008;4.752;2023-02-12T05:48:32;103971.38;;;9.76;64.43
46534;BME280;32260;52.008;4.752;2023-02-12T05:51:16;103953.81;;;9.78;64.40
46534;BME280;32260;52.008;4.752;2023-02-12T05:53:42;103957.09;;;9.70;64.42
46534;BME280;32260;52.008;4.752;2023-02-12T05:58:51;103971.22;;;9.69;64.44
46534;BME280;32260;52.008;4.752;2023-02-12T06:01:20;103967.59;;;9.67;64.54
46534;BME280;32260;52.008;4.752;2023-02-12T06:03:47;103968.41;;;9.65;64.22
46534;BME280;32260;52.008;4.752;2023-02-12T06:06:13;103959.53;;;9.64;64.51
46534;BME280;32260;52.008;4.752;2023-02-12T06:08:40;103964.84;;;9.64;64.54
46534;BME280;32260;52.008;4.752;2023-02-12T06:11:11;103962.19;;;9.64;64.70
46534;BME280;32260;52.008;4.752;2023-02-12T06:13:38;103966.59;;;9.64;64.62
46534;BME280;32260;52.008;4.752;2023-02-12T06:16:04;103963.09;;;9.65;64.48
46534;BME280;32260;52.008;4.752;2023-02-12T06:18:33;103962.19;;;9.64;64.68
46534;BME280;32260;52.008;4.752;2023-02-12T06:21:01;103967.47;;;9.64;64.43
46534;BME280;32260;52.008;4.752;2023-02-12T06:23:28;103963.94;;;9.64;64.44
46534;BME280;32260;52.008;4.752;2023-02-12T06:25:56;103958.63;;;9.62;64.55
46534;BME280;32260;52.008;4.752;2023-02-12T06:28:22;103955.00;;;9.60;64.60
46534;BME280;32260;52.008;4.752;2023-02-12T06:30:48;103958.53;;;9.61;64.38
46534;BME280;32260;52.008;4.752;2023-02-12T06:33:14;103955.88;;;9.61;64.48
46534;BME280;32260;52.008;4.752;2023-02-12T06:35:40;103961.09;;;9.58;64.76
46534;BME280;32260;52.008;4.752;2023-02-12T06:38:06;103960.19;;;9.57;64.69
46534;BME280;32260;52.008;4.752;2023-02-12T06:40:33;103960.19;;;9.57;64.54
46534;BME280;32260;52.008;4.752;2023-02-12T06:42:59;103965.50;;;9.57;64.78
46534;BME280;32260;52.008;4.752;2023-02-12T06:45:25;103966.34;;;9.56;64.48
46534;BME280;32260;52.008;4.752;2023-02-12T06:47:51;103962.84;;;9.57;64.83
46534;BME280;32260;52.008;4.752;2023-02-12T06:50:18;103967.28;;;9.58;64.63
46534;BME280;32260;52.008;4.752;2023-02-12T06:52:44;103971.72;;;9.59;64.84
46534;BME280;32260;52.008;4.752;2023-02-12T06:55:10;103970.84;;;9.59;64.58
46534;BME280;32260;52.008;4.752;2023-02-12T06:57:36;103968.22;;;9.60;64.69
46534;BME280;32260;52.008;4.752;2023-02-12T07:00:03;103976.19;;;9.60;64.85
46534;BME280;32260;52.008;4.752;2023-02-12T07:02:29;103971.78;;;9.61;64.62
46534;BME280;32260;52.008;4.752;2023-02-12T07:04:55;103977.88;;;9.58;64.65
46534;BME280;32260;52.008;4.752;2023-02-12T07:07:21;103982.28;;;9.58;64.74
46534;BME280;32260;52.008;4.752;2023-02-12T07:09:50;103983.16;;;9.58;64.62
46534;BME280;32260;52.008;4.752;2023-02-12T07:12:17;103989.25;;;9.55;64.66
46534;BME280;32260;52.008;4.752;2023-02-12T07:14:43;103992.81;;;9.56;64.54
46534;BME280;32260;52.008;4.752;2023-02-12T07:17:09;103981.31;;;9.55;64.46
46534;BME280;32260;52.008;4.752;2023-02-12T07:19:35;103991.84;;;9.54;65.10
46534;BME280;32260;52.008;4.752;2023-02-12T07:22:02;103992.81;;;9.56;64.89
46534;BME280;32260;52.008;4.752;2023-02-12T07:24:28;103993.66;;;9.55;64.83
46534;BME280;32260;52.008;4.752;2023-02-12T07:26:54;103999.78;;;9.54;64.99
46534;BME280;32260;52.008;4.752;2023-02-12T07:29:20;104004.25;;;9.55;64.81
46534;BME280;32260;52.008;4.752;2023-02-12T07:31:46;104003.44;;;9.58;64.83
46534;BME280;32260;52.008;4.752;2023-02-12T07:34:12;104008.69;;;9.56;64.67
46534;BME280;32260;52.008;4.752;2023-02-12T07:36:38;104007.84;;;9.57;64.69
46534;BME280;32260;52.008;4.752;2023-02-12T07:39:05;104011.38;;;9.58;64.89
46534;BME280;32260;52.008;4.752;2023-02-12T07:41:33;104014.03;;;9.58;64.58
46534;BME280;32260;52.008;4.752;2023-02-12T07:44:02;104009.63;;;9.58;64.96
46534;BME280;32260;52.008;4.752;2023-02-12T07:46:34;104013.19;;;9.59;64.81
46534;BME280;32260;52.008;4.752;2023-02-12T07:49:04;104011.56;;;9.62;64.88
46534;BME280;32260;52.008;4.752;2023-02-12T07:51:32;104011.56;;;9.62;64.92
46534;BME280;32260;52.008;4.752;2023-02-12T07:53:59;104023.97;;;9.63;64.80
46534;BME280;32260;52.008;4.752;2023-02-12T07:56:28;104023.09;;;9.64;64.98
46534;BME280;32260;52.008;4.752;2023-02-12T07:58:58;104015.22;;;9.66;64.86
46534;BME280;32260;52.008;4.752;2023-02-12T08:01:29;104022.38;;;9.68;64.81
46534;BME280;32260;52.008;4.752;2023-02-12T08:04:00;104017.94;;;9.69;64.76
46534;BME280;32260;52.008;4.752;2023-02-12T08:06:29;104015.31;;;9.69;65.00
46534;BME280;32260;52.008;4.752;2023-02-12T08:08:57;104018.88;;;9.69;64.83
46534;BME280;32260;52.008;4.752;2023-02-12T08:11:24;104022.44;;;9.71;64.83
46534;BME280;32260;52.008;4.752;2023-02-12T08:13:51;104021.66;;;9.74;64.54
46534;BME280;32260;52.008;4.752;2023-02-12T08:16:20;104023.47;;;9.75;64.66
46534;BME280;32260;52.008;4.752;2023-02-12T08:18:47;104027.97;;;9.78;64.37
46534;BME280;32260;52.008;4.752;2023-02-12T08:21:16;104024.47;;;9.79;64.44
46534;BME280;32260;52.008;4.752;2023-02-12T08:23:43;104020.06;;;9.79;64.31
46534;BME280;32260;52.008;4.752;2023-02-12T08:26:12;104027.22;;;9.82;64.33
46534;BME280;32260;52.008;4.752;2023-02-12T08:28:42;104028.97;;;9.81;64.42
46534;BME280;32260;52.008;4.752;2023-02-12T08:31:13;104028.19;;;9.84;64.12
46534;BME280;32260;52.008;4.752;2023-02-12T08:33:40;104028.19;;;9.84;64.21
46534;BME280;32260;52.008;4.752;2023-02-12T08:36:09;104027.38;;;9.86;64.24
46534;BME280;32260;52.008;4.752;2023-02-12T08:38:37;104040.66;;;9.88;64.25
46534;BME280;32260;52.008;4.752;2023-02-12T08:41:05;104044.28;;;9.90;64.26
46534;BME280;32260;52.008;4.752;2023-02-12T08:43:38;104041.75;;;9.93;64.16
46534;BME280;32260;52.008;4.752;2023-02-12T08:46:08;104043.53;;;9.94;64.08
46534;BME280;32260;52.008;4.752;2023-02-12T08:48:39;104047.13;;;9.96;63.97
46534;BME280;32260;52.008;4.752;2023-02-12T08:51:08;104046.34;;;9.99;63.94
46534;BME280;32260;52.008;4.752;2023-02-12T08:53:40;104045.50;;;10.00;63.89
46534;BME280;32260;52.008;4.752;2023-02-12T08:56:09;104049.16;;;10.03;63.80
46534;BME280;32260;52.008;4.752;2023-02-12T08:58:38;104043.00;;;10.04;63.61
46534;BME280;32260;52.008;4.752;2023-02-12T09:01:09;104063.44;;;10.09;63.56
46534;BME280;32260;52.008;4.752;2023-02-12T09:03:36;104055.47;;;10.07;63.91
46534;BME280;32260;52.008;4.752;2023-02-12T09:06:04;104059.97;;;10.10;63.48
46534;BME280;32260;52.008;4.752;2023-02-12T09:08:30;104056.50;;;10.12;63.78
46534;BME280;32260;52.008;4.752;2023-02-12T09:10:57;104060.88;;;10.12;63.95
46534;BME280;32260;52.008;4.752;2023-02-12T09:13:23;104060.03;;;10.13;63.78
46534;BME280;32260;52.008;4.752;2023-02-12T09:15:49;104061.00;;;10.15;63.79
46534;BME280;32260;52.008;4.752;2023-02-12T09:18:16;104062.81;;;10.16;63.83
46534;BME280;32260;52.008;4.752;2023-02-12T09:20:43;104061.09;;;10.18;63.84
46534;BME280;32260;52.008;4.752;2023-02-12T09:23:12;104071.81;;;10.21;63.87
46534;BME280;32260;52.008;4.752;2023-02-12T09:25:41;104060.38;;;10.22;63.51
46534;BME280;32260;52.008;4.752;2023-02-12T09:28:08;104056.00;;;10.24;64.05
46534;BME280;32260;52.008;4.752;2023-02-12T09:30:39;104061.41;;;10.27;63.26
46534;BME280;32260;52.008;4.752;2023-02-12T09:33:06;104067.69;;;10.29;63.73
46534;BME280;32260;52.008;4.752;2023-02-12T09:35:35;104075.75;;;10.34;63.14
46534;BME280;32260;52.008;4.752;2023-02-12T09:38:02;104073.25;;;10.37;63.39
46534;BME280;32260;52.008;4.752;2023-02-12T09:41:45;104063.88;;;10.47;63.52
46534;BME280;32260;52.008;4.752;2023-02-12T09:46:40;104065.94;;;10.57;63.09
46534;BME280;32260;52.008;4.752;2023-02-12T09:49:20;104065.75;;;10.51;62.94
46534;BME280;32260;52.008;4.752;2023-02-12T09:51:52;104067.72;;;10.57;63.13
46534;BME280;32260;52.008;4.752;2023-02-12T09:54:22;104062.44;;;10.58;63.16
46534;BME280;32260;52.008;4.752;2023-02-12T09:56:53;104059.91;;;10.63;63.46
46534;BME280;32260;52.008;4.752;2023-02-12T09:59:39;104059.22;;;10.68;63.00
46534;BME280;32260;52.008;4.752;2023-02-12T10:02:13;104055.63;;;10.66;62.55
46534;BME280;32260;52.008;4.752;2023-02-12T10:04:42;104063.56;;;10.66;62.87
46534;BME280;32260;52.008;4.752;2023-02-12T10:07:33;104064.75;;;10.76;62.60
46534;BME280;32260;52.008;4.752;2023-02-12T10:10:27;104067.47;;;10.78;62.21
46534;BME280;32260;52.008;4.752;2023-02-12T10:21:46;104056.47;;;10.94;62.66
46534;BME280;32260;52.008;4.752;2023-02-12T10:24:34;104055.56;;;10.94;62.51
46534;BME280;32260;52.008;4.752;2023-02-12T10:27:14;104056.56;;;10.97;62.61
46534;BME280;32260;52.008;4.752;2023-02-12T10:29:45;104062.81;;;10.99;62.46
46534;BME280;32260;52.008;4.752;2023-02-12T10:34:48;104054.75;;;10.96;63.11
46534;BME280;32260;52.008;4.752;2023-02-12T10:42:49;104055.69;;;11.29;61.52
46534;BME280;32260;52.008;4.752;2023-02-12T10:45:20;104055.75;;;11.30;61.46
46534;BME280;32260;52.008;4.752;2023-02-12T10:47:51;104057.63;;;11.35;61.47
46534;BME280;32260;52.008;4.752;2023-02-12T10:51:36;104056.19;;;11.46;61.20
46534;BME280;32260;52.008;4.752;2023-02-12T10:56:20;104058.81;;;11.44;60.03
46534;BME280;32260;52.008;4.752;2023-02-12T10:58:57;104061.66;;;11.52;61.10
46534;BME280;32260;52.008;4.752;2023-02-12T11:04:32;104055.75;;;11.62;60.40
46534;BME280;32260;52.008;4.752;2023-02-12T11:09:52;104053.84;;;11.57;61.65
46534;BME280;32260;52.008;4.752;2023-02-12T11:12:43;104050.53;;;11.65;59.73
46534;BME280;32260;52.008;4.752;2023-02-12T11:15:16;104052.91;;;11.56;60.19
46534;BME280;32260;52.008;4.752;2023-02-12T11:17:45;104052.91;;;11.56;60.58
46534;BME280;32260;52.008;4.752;2023-02-12T11:20:28;104059.28;;;11.61;60.44
46534;BME280;32260;52.008;4.752;2023-02-12T11:23:01;104053.00;;;11.59;60.08
46534;BME280;32260;52.008;4.752;2023-02-12T11:25:29;104048.66;;;11.61;60.58
46534;BME280;32260;52.008;4.752;2023-02-12T11:28:16;104052.34;;;11.67;60.45
46534;BME280;32260;52.008;4.752;2023-02-12T11:34:12;104051.47;;;11.68;59.82
46534;BME280;32260;52.008;4.752;2023-02-12T11:43:34;104052.25;;;11.65;60.57
46534;BME280;32260;52.008;4.752;2023-02-12T11:46:07;104044.38;;;11.67;60.17
46534;BME280;32260;52.008;4.752;2023-02-12T11:48:36;104039.91;;;11.65;59.61
46534;BME280;32260;52.008;4.752;2023-02-12T11:51:06;104044.38;;;11.67;59.94
46534;BME280;32260;52.008;4.752;2023-02-12T11:53:39;104044.38;;;11.67;59.51
46534;BME280;32260;52.008;4.752;2023-02-12T11:56:12;104041.75;;;11.68;59.76
46534;BME280;32260;52.008;4.752;2023-02-12T11:58:39;104038.13;;;11.66;60.36
46534;BME280;32260;52.008;4.752;2023-02-12T12:06:40;104035.59;;;11.71;59.91
46534;BME280;32260;52.008;4.752;2023-02-12T12:09:17;104032.97;;;11.72;59.53
46534;BME280;32260;52.008;4.752;2023-02-12T12:14:45;104027.56;;;11.68;58.75
46534;BME280;32260;52.008;4.752;2023-02-12T12:17:50;104035.66;;;11.74;58.58
46534;BME280;32260;52.008;4.752;2023-02-12T12:20:42;104028.59;;;11.73;58.38
46534;BME280;32260;52.008;4.752;2023-02-12T12:23:19;104029.56;;;11.76;59.65
46534;BME280;32260;52.008;4.752;2023-02-12T12:25:50;104025.94;;;11.73;57.61
46534;BME280;32260;52.008;4.752;2023-02-12T12:28:46;104015.47;;;11.79;58.50
46534;BME280;32260;52.008;4.752;2023-02-12T12:34:09;104021.53;;;11.75;57.79
46534;BME280;32260;52.008;4.752;2023-02-12T12:51:03;104001.72;;;11.95;57.33
46534;BME280;32260;52.008;4.752;2023-02-12T12:59:49;103998.22;;;11.96;56.75
46534;BME280;32260;52.008;4.752;2023-02-12T13:10:35;103993.59;;;11.89;57.37
46534;BME280;32260;52.008;4.752;2023-02-12T13:13:14;103988.00;;;11.80;56.28
46534;BME280;32260;52.008;4.752;2023-02-12T13:16:48;103982.66;;;11.77;55.10
46534;BME280;32260;52.008;4.752;2023-02-12T13:18:57;103982.81;;;11.85;55.15
46534;BME280;32260;52.008;4.752;2023-02-12T13:27:23;103982.69;;;11.80;55.07
46534;BME280;32260;52.008;4.752;2023-02-12T13:29:43;103980.00;;;11.77;54.94
46534;BME280;32260;52.008;4.752;2023-02-12T13:32:49;103972.00;;;11.77;54.87
46534;BME280;32260;52.008;4.752;2023-02-12T13:35:05;103968.41;;;11.75;54.42
46534;BME280;32260;52.008;4.752;2023-02-12T13:37:50;103975.66;;;11.80;55.06
46534;BME280;32260;52.008;4.752;2023-02-12T13:40:20;103973.72;;;11.75;54.55
46534;BME280;32260;52.008;4.752;2023-02-12T13:46:01;103977.47;;;11.83;55.40
46534;BME280;32260;52.008;4.752;2023-02-12T13:48:34;103973.94;;;11.82;54.05
46534;BME280;32260;52.008;4.752;2023-02-12T13:51:14;103968.50;;;11.78;53.54
46534;BME280;32260;52.008;4.752;2023-02-12T13:56:46;103957.78;;;11.75;54.69
46534;BME280;32260;52.008;4.752;2023-02-12T14:04:55;103955.75;;;11.64;54.45
46534;BME280;32260;52.008;4.752;2023-02-12T14:07:39;103959.16;;;11.59;54.48
46534;BME280;32260;52.008;4.752;2023-02-12T14:10:06;103952.97;;;11.60;54.80
46534;BME280;32260;52.008;4.752;2023-02-12T14:12:36;103951.16;;;11.57;54.93
46534;BME280;32260;52.008;4.752;2023-02-12T14:17:55;103950.38;;;11.61;54.59
46534;BME280;32260;52.008;4.752;2023-02-12T14:23:22;103939.03;;;11.69;54.58
46534;BME280;32260;52.008;4.752;2023-02-12T14:26:09;103934.63;;;11.69;54.65
46534;BME280;32260;52.008;4.752;2023-02-12T14:29:13;103943.34;;;11.63;54.42
46534;BME280;32260;52.008;4.752;2023-02-12T14:37:09;103924.78;;;11.65;54.35
46534;BME280;32260;52.008;4.752;2023-02-12T14:41:37;103944.03;;;11.56;54.87
46534;BME280;32260;52.008;4.752;2023-02-12T14:47:10;103939.50;;;11.52;54.28
46534;BME280;32260;52.008;4.752;2023-02-12T14:49:44;103939.50;;;11.52;54.57
46534;BME280;32260;52.008;4.752;2023-02-12T14:57:29;103931.59;;;11.54;54.88
46534;BME280;32260;52.008;4.752;2023-02-12T15:02:59;103925.34;;;11.52;54.98
46534;BME280;32260;52.008;4.752;2023-02-12T15:09:01;103920.06;;;11.53;54.95
46534;BME280;32260;52.008;4.752;2023-02-12T15:11:40;103926.25;;;11.52;55.06
46534;BME280;32260;52.008;4.752;2023-02-12T15:22:34;103919.94;;;11.48;56.08
46534;BME280;32260;52.008;4.752;2023-02-12T15:25:22;103916.31;;;11.45;56.22
46534;BME280;32260;52.008;4.752;2023-02-12T15:27:54;103918.75;;;11.36;56.26
46534;BME280;32260;52.008;4.752;2023-02-12T15:30:24;103920.44;;;11.33;56.37
46534;BME280;32260;52.008;4.752;2023-02-12T15:32:55;103919.47;;;11.30;56.97
46534;BME280;32260;52.008;4.752;2023-02-12T15:35:26;103920.38;;;11.30;56.70
46534;BME280;32260;52.008;4.752;2023-02-12T15:37:54;103919.44;;;11.28;56.26
46534;BME280;32260;52.008;4.752;2023-02-12T15:40:21;103920.28;;;11.27;56.21
46534;BME280;32260;52.008;4.752;2023-02-12T15:42:58;103917.63;;;11.27;56.22
46534;BME280;32260;52.008;4.752;2023-02-12T15:53:26;103914.88;;;11.23;56.47
46534;BME280;32260;52.008;4.752;2023-02-12T15:55:55;103913.97;;;11.22;56.26
46534;BME280;32260;52.008;4.752;2023-02-12T15:58:25;103914.13;;;11.28;56.21
46534;BME280;32260;52.008;4.752;2023-02-12T16:00:53;103912.16;;;11.21;56.49
46534;BME280;32260;52.008;4.752;2023-02-12T16:06:05;103921.06;;;11.23;56.25
46534;BME280;32260;52.008;4.752;2023-02-12T16:08:36;103919.19;;;11.19;56.53